LIMG 191750Z 05006KT CAVOK 26/13 Q1024 LIMG 191650Z 05007KT 030V090 CAVOK 26/13 Q1024 LIMG 191550Z 05008KT CAVOK 28/12 Q1024 LIMG 191450Z 08010KT 050V110 CAVOK 29/10 Q1024 LIMG 191350Z 16006KT 130V210 CAVOK 30/12 Q1024 LIMG 191250Z 14007KT 9999 FEW040 30/11 Q1024 LIMG 191150Z VRB05KT CAVOK 30/11 Q1024 LIMG 191050Z 10006KT 020V190 CAVOK 29/12 Q1024 LIMG 190950Z 36008KT 320V050 9999 FEW070 29/11 Q1025 LIMG 190850Z 22004KT 160V270 9999 SCT060 26/15 Q1025 LIMG 190750Z 26005KT 220V280 9999 SCT060 23/16 Q1025 LIMG 190650Z 26006KT 220V290 9999 SCT060 24/16 Q1025 LIMG 190557Z 26005KT 140V290 9999 SCT060 22/16 Q1025 LIMG 181750Z VRB02KT 9999 FEW040 SCT060 24/14 Q1020 LIMG 181650Z 05008KT 9999 FEW040 25/13 Q1020 LIMG 181550Z 07007KT 9999 FEW040 26/14 Q1020 LIMG 181450Z 06008KT 9999 SCT045 26/14 Q1020 LIMG 181350Z 06009KT 9999 SCT035TCU 24/15 Q1020

METAR Messwerte "ALBENGA" LIMG

Zurück zur Übersicht

Ortsname
Ländercode / m ü. NN
Zeit Temperatur Taupunkt Rel.
Luftfeuchte
Luftdruck:
Altimeter
NN
Station
Wind in Beaufort
(Knoten)
Sichtweite
(Meter)
Wolken
(Meter über Grund)
Wettererscheinung
ALBENGA
IT 41
Do 19.05. 19:50261345 %1024
1024
1019
NO 2 (6)>= 10000Nicht signifikant 
ALBENGA
IT 41
Do 19.05. 18:50261345 %1024
1024
1019
NO 3 (7)
NNO - O
>= 10000Nicht signifikant 
ALBENGA
IT 41
Do 19.05. 17:50281237 %1024
1024
1019
NO 3 (8)>= 10000Nicht signifikant 
ALBENGA
IT 41
Do 19.05. 16:50291031 %1024
1024
1019
O 3 (10)
NO - OSO
>= 10000Nicht signifikant 
ALBENGA
IT 41
Do 19.05. 15:50301233 %1024
1024
1019
SSO 2 (6)
SO - SSW
>= 10000Nicht signifikant 
ALBENGA
IT 41
Do 19.05. 14:50301131 %1024
1024
1019
SO 3 (7)>= 10000Leicht bewölkt (1200) 
ALBENGA
IT 41
Do 19.05. 13:50301131 %1024
1024
1019
Uml 2 (5)>= 10000Nicht signifikant 
ALBENGA
IT 41
Do 19.05. 12:50291235 %1024
1024
1019
O 2 (6)
NNO - S
>= 10000Nicht signifikant 
ALBENGA
IT 41
Do 19.05. 11:50291133 %1025
1025
1020
N 3 (8)
NW - NO
>= 10000Leicht bewölkt (2100) 
ALBENGA
IT 41
Do 19.05. 10:50261551 %1025
1025
1020
SW 2 (4)
SSO - W
>= 10000Wolkig (1800) 
ALBENGA
IT 41
Do 19.05. 09:50231665 %1025
1025
1020
W 2 (5)
SW - W
>= 10000Wolkig (1800) 
ALBENGA
IT 41
Do 19.05. 08:50241661 %1025
1025
1020
W 2 (6)
SW - WNW
>= 10000Wolkig (1800) 
ALBENGA
IT 41
Do 19.05. 07:57221669 %1025
1025
1020
W 2 (5)
SO - WNW
>= 10000Wolkig (1800) 
ALBENGA
IT 41
Mi 18.05. 19:50241454 %1020
1020
1015
Uml 1 (2)>= 10000Wolkig (1800)
Leicht bewölkt (1200)
 
ALBENGA
IT 41
Mi 18.05. 18:50251347 %1020
1020
1015
NO 3 (8)>= 10000Leicht bewölkt (1200) 
ALBENGA
IT 41
Mi 18.05. 17:50261448 %1020
1020
1015
ONO 3 (7)>= 10000Leicht bewölkt (1200) 
ALBENGA
IT 41
Mi 18.05. 16:50261448 %1020
1020
1015
ONO 3 (8)>= 10000Wolkig (1400) 
ALBENGA
IT 41
Mi 18.05. 15:50241557 %1020
1020
1015
ONO 3 (9)>= 10000Wolkig (1100) 

Altimeter: Einstellung am Altimeter (Höhenmesser), die Höhe 0 muss auf diesen Luftdruckwert zeigen, damit das Gerät die Stationshöhe richtig anzeigt.

NN: Luftdruck reduziert auf "Normal Null", auf Meereshöhe, dieser von der Temperatur abhängige Wert wird bisweilen unkorrekt einfach als "Luftdruck" bezeichnet. Eigentlich nur eine fiktive Größe, die es erlaubt, Stationen auf unterschiedlichen Höhen miteinander zu vergleichen.

Station: Realer Luftdruck an der Station.